Sioux Falls, SD (57198)

4:27 PM CDT on September 03, 2015 (GMT -0500)
477th | | Change Station
CLOSE
Current Station
Personal Weather Station
Location: Baltic, SD
Elevation: 1562 ft
Nearby Weather Stations

Elev 1562 ft 43.71 °N, 96.67 °W | Updated 9 minutes ago

Clear
Clear
87.8 °F
Feels Like 98 °F
N
10.9
Wind Variable Wind from SE

Today
High -- | Low -- °F
--% Chance of Precip.
Yesterday
High -- | Low -- °F
Precip. -- in
6:52 AM 7:58 PM
Waning Gibbous, 67% visible
Pressure 29.76 in
Visibility 10.0 miles
Clouds Few 25000 ft
Heat Index 98 °F
Dew Point 75 °F
Humidity 67%
Rainfall 0.00 in
Snow Depth Not available.
UV 5 out of 12
Pollen 11.10 out of 12
Air Quality Not available.
Flu Activity Not available.
METAR KFSD 032056Z 15010KT 10SM FEW250 30/21 A2979 RMK AO2 SLP078 T03000211 58013
Pressure 29.76 in
Visibility 10.0 miles
Clouds Few 25000 ft
Heat Index 98 °F
Dew Point 75 °F
Humidity 67%
Rainfall 0.00 in
Snow Depth Not available.
UV 5 out of 12
Pollen 11.10 out of 12
Air Quality Not available.
Flu Activity Not available.
METAR KFSD 032056Z 15010KT 10SM FEW250 30/21 A2979 RMK AO2 SLP078 T03000211 58013

10-Day Weather Forecast

×

Almanac

Astronomy

Sep. 03, 2015 Rise Set
Actual Time
Civil Twilight
Nautical Twilight
Astronomical Twilight
Moon
Length of Visible Light
Length of Day
Tomorrow will be .
, % of the Moon is Illuminated

Today's Extremes

State Highs State Lows

Community

WunderPhotos

Upload Photos

1,852,038 photos uploaded!

WunderBlogs® & News

Nearby

Air Quality

  Air Quality AQ Index Pollutant
Not available.

Snow Depth

Station Depth Elevation

Earthquake Activity

City Distance Mag. Time & Date
Minimum magnitude displayed is 2.5.

Coastal Water Temperatures

Place Temperature

Stations

Nearby Weather Stations

Station Location Temp. Windchill Dew Point Humidity Wind Precip. Elev Updated Type